createdAt,value
2023-01-18T00:02:24.346Z,1.00
2023-01-18T00:07:23.374Z,0.90
2023-01-18T00:12:22.378Z,0.90
2023-01-18T00:17:21.206Z,0.90
2023-01-18T00:22:20.400Z,0.80
2023-01-18T00:27:20.821Z,0.80
2023-01-18T00:32:20.265Z,0.80
2023-01-18T00:37:19.286Z,0.80
2023-01-18T00:42:36.289Z,0.80
2023-01-18T00:47:35.324Z,0.80
2023-01-18T00:52:34.582Z,0.80
2023-01-18T00:57:33.365Z,0.80
2023-01-18T01:02:32.413Z,0.70
2023-01-18T01:07:31.469Z,0.70
2023-01-18T01:12:48.459Z,0.60
2023-01-18T01:18:05.320Z,0.60
2023-01-18T01:23:22.312Z,0.60
2023-01-18T01:28:21.325Z,0.60
2023-01-18T01:33:20.311Z,0.60
2023-01-18T01:38:19.300Z,0.60
2023-01-18T01:43:18.333Z,0.60
2023-01-18T01:48:17.321Z,0.60
2023-01-18T01:53:16.333Z,0.60
2023-01-18T01:58:15.241Z,0.50
2023-01-18T02:03:15.432Z,0.50
2023-01-18T02:08:16.272Z,0.50
2023-01-18T02:13:15.246Z,0.50
2023-01-18T02:18:14.253Z,0.50
2023-01-18T02:23:13.270Z,0.40
2023-01-18T02:28:12.341Z,0.40
2023-01-18T02:33:11.287Z,0.40
2023-01-18T02:38:10.317Z,0.40
2023-01-18T02:43:30.413Z,0.30
2023-01-18T02:48:29.240Z,0.30
2023-01-18T02:53:28.425Z,0.30
2023-01-18T02:58:27.460Z,0.30
2023-01-18T03:03:26.247Z,0.30
2023-01-18T03:08:25.459Z,0.30
2023-01-18T03:13:24.260Z,0.30
2023-01-18T03:18:23.278Z,0.30
2023-01-18T03:23:42.083Z,0.40
2023-01-18T03:28:59.319Z,0.40
2023-01-18T03:33:58.577Z,0.40
2023-01-18T03:38:57.423Z,0.40
2023-01-18T03:43:56.417Z,0.40
2023-01-18T03:48:57.580Z,0.40
2023-01-18T03:53:56.492Z,0.30
2023-01-18T03:58:55.296Z,0.30
2023-01-18T04:03:54.443Z,0.30
2023-01-18T04:08:53.300Z,0.30
2023-01-18T04:13:54.436Z,0.30
2023-01-18T04:18:53.269Z,0.30
2023-01-18T04:23:52.388Z,0.30
2023-01-18T04:28:51.479Z,0.30
2023-01-18T04:33:51.280Z,0.30
2023-01-18T04:38:50.293Z,0.30
2023-01-18T04:43:49.478Z,0.30
2023-01-18T04:48:48.582Z,0.30
2023-01-18T04:53:47.977Z,0.30
2023-01-18T04:58:47.330Z,0.30
2023-01-18T05:03:46.354Z,0.20
2023-01-18T05:08:45.339Z,0.20
2023-01-18T05:13:44.369Z,0.20
2023-01-18T05:18:43.390Z,0.20
2023-01-18T05:23:42.413Z,0.10
2023-01-18T05:28:41.386Z,0.10
2023-01-18T05:33:40.515Z,0.10
2023-01-18T05:38:39.299Z,0.20
2023-01-18T05:43:38.451Z,0.20
2023-01-18T05:48:37.439Z,0.20
2023-01-18T05:53:36.435Z,0.20
2023-01-18T05:58:35.451Z,0.30
2023-01-18T06:03:34.472Z,0.30
2023-01-18T06:08:34.293Z,0.30
2023-01-18T06:13:33.387Z,0.30
2023-01-18T06:18:32.785Z,0.20
2023-01-18T06:23:31.308Z,0.10
2023-01-18T06:28:30.939Z,0.10
2023-01-18T06:33:30.362Z,0.10
2023-01-18T06:38:30.470Z,0.00
2023-01-18T06:43:29.412Z,0.00
2023-01-18T06:48:29.342Z,0.00
2023-01-18T06:53:29.564Z,0.00
2023-01-18T06:58:28.332Z,0.00
2023-01-18T07:03:27.521Z,0.00
2023-01-18T07:08:27.112Z,0.00
2023-01-18T07:13:26.652Z,0.00
2023-01-18T07:18:25.488Z,0.00
2023-01-18T07:23:24.381Z,0.00
2023-01-18T07:28:23.421Z,0.00
2023-01-18T07:33:22.410Z,0.10
2023-01-18T07:38:21.447Z,0.20
2023-01-18T07:43:20.474Z,0.20
2023-01-18T07:48:19.452Z,0.20
2023-01-18T07:53:18.764Z,0.20
2023-01-18T07:58:17.465Z,0.20
2023-01-18T08:03:16.479Z,0.20
2023-01-18T08:08:15.392Z,0.20
2023-01-18T08:13:14.509Z,0.20
2023-01-18T08:18:14.418Z,0.20
2023-01-18T08:23:13.439Z,0.30
2023-01-18T08:28:12.373Z,0.30
2023-01-18T08:33:11.560Z,0.40
2023-01-18T08:38:10.387Z,0.50
2023-01-18T08:43:10.280Z,0.60
2023-01-18T08:48:09.491Z,0.70
2023-01-18T08:53:08.537Z,0.70
2023-01-18T08:58:07.467Z,0.80
2023-01-18T09:03:06.471Z,0.90
2023-01-18T09:08:05.465Z,1.00
2023-01-18T09:13:05.378Z,1.00
2023-01-18T09:18:05.823Z,1.10
2023-01-18T09:23:04.813Z,1.20
2023-01-18T09:28:03.560Z,1.30
2023-01-18T09:33:02.696Z,1.40
2023-01-18T09:38:01.682Z,1.60
2023-01-18T09:43:00.760Z,1.70
2023-01-18T09:48:00.443Z,1.90
2023-01-18T09:52:59.823Z,2.10
2023-01-18T09:57:59.485Z,2.30
2023-01-18T10:03:00.446Z,2.40
2023-01-18T10:08:07.113Z,2.50
2023-01-18T10:13:06.593Z,2.60
2023-01-18T10:18:05.559Z,2.70
2023-01-18T10:23:04.449Z,2.70
2023-01-18T10:28:06.452Z,2.80
2023-01-18T10:33:06.347Z,2.90
2023-01-18T10:38:05.498Z,3.00
2023-01-18T10:43:04.507Z,3.00
2023-01-18T10:48:03.527Z,3.00
2023-01-18T10:53:02.513Z,3.00
2023-01-18T10:58:02.003Z,2.90
2023-01-18T11:03:02.024Z,3.00
2023-01-18T11:08:02.718Z,2.90
2023-01-18T11:13:01.718Z,2.90
2023-01-18T11:18:00.774Z,2.90
2023-01-18T11:22:59.653Z,2.90
2023-01-18T11:27:58.735Z,2.90
2023-01-18T11:32:57.763Z,2.80
2023-01-18T11:37:57.096Z,2.80
2023-01-18T11:42:58.183Z,2.80
2023-01-18T11:47:57.952Z,2.90
2023-01-18T11:52:57.607Z,2.90
2023-01-18T11:57:56.648Z,3.00
2023-01-18T12:02:56.253Z,3.10
2023-01-18T12:07:55.577Z,3.20
2023-01-18T12:12:54.484Z,3.30
2023-01-18T12:18:07.801Z,3.40
2023-01-18T12:22:55.067Z,3.40
2023-01-18T12:27:55.243Z,3.50
2023-01-18T12:32:55.115Z,3.50
2023-01-18T12:37:54.669Z,3.50
2023-01-18T12:42:53.732Z,3.60
2023-01-18T12:47:52.748Z,3.60
2023-01-18T12:52:51.710Z,3.70
2023-01-18T12:57:50.612Z,3.80
2023-01-18T13:02:50.431Z,3.90
2023-01-18T13:07:49.499Z,3.90
2023-01-18T13:12:48.585Z,4.00
2023-01-18T13:17:47.568Z,4.10
2023-01-18T13:22:47.657Z,4.20
2023-01-18T13:27:46.597Z,4.40
2023-01-18T13:32:47.508Z,4.50
2023-01-18T13:37:47.392Z,4.50
2023-01-18T13:42:46.516Z,4.60
2023-01-18T13:47:46.200Z,4.60
2023-01-18T13:52:45.607Z,4.70
2023-01-18T13:57:44.573Z,4.80
2023-01-18T14:02:43.508Z,4.90
2023-01-18T14:07:49.631Z,5.00
2023-01-18T14:12:48.594Z,5.20
2023-01-18T14:17:58.119Z,5.40
2023-01-18T14:22:48.429Z,5.50
2023-01-18T14:27:47.447Z,5.60
2023-01-18T14:32:46.659Z,5.70
2023-01-18T14:37:46.390Z,5.70
2023-01-18T14:42:45.661Z,5.70
2023-01-18T14:47:44.429Z,5.70
2023-01-18T14:52:43.744Z,5.70
2023-01-18T14:57:43.245Z,5.60
2023-01-18T15:02:42.930Z,5.50
2023-01-18T15:07:41.682Z,5.40
2023-01-18T15:12:40.588Z,5.30
2023-01-18T15:17:39.631Z,5.20
2023-01-18T15:22:40.103Z,5.10
2023-01-18T15:27:40.304Z,5.00
2023-01-18T15:32:40.739Z,5.00
2023-01-18T15:37:39.562Z,4.90
2023-01-18T15:42:38.873Z,4.80
2023-01-18T15:47:37.585Z,4.60
2023-01-18T15:52:36.475Z,4.40
2023-01-18T15:57:35.615Z,4.30
2023-01-18T16:02:34.760Z,4.10
2023-01-18T16:07:33.901Z,4.00
2023-01-18T16:12:32.450Z,3.90
2023-01-18T16:17:31.657Z,3.80
2023-01-18T16:22:30.690Z,3.80
2023-01-18T16:27:29.666Z,3.70
2023-01-18T16:32:28.669Z,3.60
2023-01-18T16:37:27.707Z,3.60
2023-01-18T16:42:37.679Z,3.50
2023-01-18T16:47:27.892Z,3.40
2023-01-18T16:52:26.940Z,3.40
2023-01-18T16:57:26.248Z,3.30
2023-01-18T17:02:25.742Z,3.30
2023-01-18T17:07:25.324Z,3.20
2023-01-18T17:12:24.654Z,3.20
2023-01-18T17:17:23.655Z,3.20
2023-01-18T17:22:22.719Z,3.10
2023-01-18T17:27:21.687Z,3.10
2023-01-18T17:32:20.693Z,3.10
2023-01-18T17:37:19.724Z,3.00
2023-01-18T17:42:29.828Z,3.00
2023-01-18T17:47:19.582Z,3.00
2023-01-18T17:52:18.576Z,3.00
2023-01-18T17:57:17.944Z,3.00
2023-01-18T18:02:16.992Z,2.90
2023-01-18T18:07:16.546Z,3.00
2023-01-18T18:12:15.655Z,2.90
2023-01-18T18:17:14.739Z,2.90
2023-01-18T18:22:13.670Z,2.90
2023-01-18T18:27:12.743Z,2.90
2023-01-18T18:32:11.706Z,2.80
2023-01-18T18:37:10.813Z,2.80
2023-01-18T18:42:09.726Z,2.80
2023-01-18T18:47:09.637Z,2.70
2023-01-18T18:52:08.758Z,2.70
2023-01-18T18:57:08.285Z,2.70
2023-01-18T19:02:07.851Z,2.70
2023-01-18T19:07:06.840Z,2.60
2023-01-18T19:12:05.626Z,2.60
2023-01-18T19:17:04.938Z,2.60
2023-01-18T19:22:03.662Z,2.60
2023-01-18T19:27:02.672Z,2.60
2023-01-18T19:32:01.746Z,2.60
2023-01-18T19:37:00.895Z,2.50
2023-01-18T19:41:59.717Z,2.50
2023-01-18T19:46:58.780Z,2.50
2023-01-18T19:51:57.893Z,2.40
2023-01-18T19:56:56.764Z,2.40
2023-01-18T20:01:56.152Z,2.40
2023-01-18T20:06:55.809Z,2.30
2023-01-18T20:11:54.688Z,2.30
2023-01-18T20:16:53.823Z,2.30
2023-01-18T20:21:53.032Z,2.30
2023-01-18T20:26:51.842Z,2.30
2023-01-18T20:31:51.424Z,2.30
2023-01-18T20:36:50.906Z,2.40
2023-01-18T20:41:49.967Z,2.60
2023-01-18T20:46:50.582Z,2.70
2023-01-18T20:51:49.768Z,2.80
2023-01-18T20:56:48.952Z,2.90
2023-01-18T21:01:47.954Z,2.90
2023-01-18T21:06:47.486Z,2.90
2023-01-18T21:11:46.886Z,3.00
2023-01-18T21:16:46.237Z,3.00
2023-01-18T21:21:45.851Z,3.00
2023-01-18T21:26:47.745Z,3.00
2023-01-18T21:31:46.793Z,2.90
2023-01-18T21:36:45.775Z,2.90
2023-01-18T21:42:02.709Z,2.90
2023-01-18T21:47:01.815Z,3.00
2023-01-18T21:52:18.757Z,3.10
2023-01-18T21:57:19.131Z,3.10
2023-01-18T22:02:17.820Z,3.20
2023-01-18T22:07:16.909Z,3.20
2023-01-18T22:12:15.935Z,3.30
2023-01-18T22:17:14.715Z,3.30
2023-01-18T22:22:13.635Z,3.20
2023-01-18T22:27:12.768Z,3.20
2023-01-18T22:32:11.746Z,3.10
2023-01-18T22:37:10.773Z,3.20
2023-01-18T22:42:09.777Z,3.20
2023-01-18T22:47:08.784Z,3.20
2023-01-18T22:52:07.786Z,3.10
2023-01-18T22:57:06.801Z,3.00
2023-01-18T23:02:05.810Z,3.00
2023-01-18T23:07:04.858Z,3.10
2023-01-18T23:12:03.833Z,3.20
2023-01-18T23:17:20.935Z,3.20
2023-01-18T23:22:20.100Z,3.20
2023-01-18T23:27:18.896Z,3.20
2023-01-18T23:32:17.934Z,3.20
2023-01-18T23:37:16.733Z,3.20
2023-01-18T23:42:33.882Z,3.10
2023-01-18T23:47:51.236Z,3.20
2023-01-18T23:53:08.079Z,3.20
2023-01-18T23:58:07.025Z,3.20
